sensor_id;sensor_type;location;lat;lon;timestamp;temperature;humidity
47532;DHT22;33273;52.254;7.988;2023-03-01T00:02:08;-3.60;71.60
47532;DHT22;33273;52.254;7.988;2023-03-01T00:04:34;-3.60;71.20
47532;DHT22;33273;52.254;7.988;2023-03-01T00:07:01;-3.60;71.10
47532;DHT22;33273;52.254;7.988;2023-03-01T00:09:26;-3.60;71.10
47532;DHT22;33273;52.254;7.988;2023-03-01T00:11:52;-3.60;71.40
47532;DHT22;33273;52.254;7.988;2023-03-01T00:14:19;-3.70;71.80
47532;DHT22;33273;52.254;7.988;2023-03-01T00:16:45;-3.70;72.40
47532;DHT22;33273;52.254;7.988;2023-03-01T00:19:13;-3.70;73.00
47532;DHT22;33273;52.254;7.988;2023-03-01T00:21:40;-3.80;73.50
47532;DHT22;33273;52.254;7.988;2023-03-01T00:24:07;-3.80;74.50
47532;DHT22;33273;52.254;7.988;2023-03-01T00:26:32;-3.90;75.00
47532;DHT22;33273;52.254;7.988;2023-03-01T00:28:58;-3.90;75.20
47532;DHT22;33273;52.254;7.988;2023-03-01T00:31:26;-3.90;75.00
47532;DHT22;33273;52.254;7.988;2023-03-01T00:33:56;-3.90;74.90
47532;DHT22;33273;52.254;7.988;2023-03-01T00:36:23;-3.90;75.60
47532;DHT22;33273;52.254;7.988;2023-03-01T00:38:50;-3.90;75.90
47532;DHT22;33273;52.254;7.988;2023-03-01T00:41:16;-3.90;75.80
47532;DHT22;33273;52.254;7.988;2023-03-01T00:43:42;-4.00;75.40
47532;DHT22;33273;52.254;7.988;2023-03-01T00:46:12;-3.90;75.20
47532;DHT22;33273;52.254;7.988;2023-03-01T00:48:38;-3.90;75.00
47532;DHT22;33273;52.254;7.988;2023-03-01T00:51:05;-4.00;74.70
47532;DHT22;33273;52.254;7.988;2023-03-01T00:53:32;-4.00;74.60
47532;DHT22;33273;52.254;7.988;2023-03-01T00:55:57;-4.00;74.80
47532;DHT22;33273;52.254;7.988;2023-03-01T00:58:24;-4.10;75.00
47532;DHT22;33273;52.254;7.988;2023-03-01T01:00:50;-4.10;75.20
47532;DHT22;33273;52.254;7.988;2023-03-01T01:03:18;-4.10;75.40
47532;DHT22;33273;52.254;7.988;2023-03-01T01:05:44;-4.10;75.50
47532;DHT22;33273;52.254;7.988;2023-03-01T01:08:09;-4.20;75.50
47532;DHT22;33273;52.254;7.988;2023-03-01T01:10:35;-4.20;75.40
47532;DHT22;33273;52.254;7.988;2023-03-01T01:13:01;-4.20;75.30
47532;DHT22;33273;52.254;7.988;2023-03-01T01:15:27;-4.20;75.60
47532;DHT22;33273;52.254;7.988;2023-03-01T01:17:53;-4.30;75.80
47532;DHT22;33273;52.254;7.988;2023-03-01T01:20:19;-4.30;75.90
47532;DHT22;33273;52.254;7.988;2023-03-01T01:22:44;-4.30;75.80
47532;DHT22;33273;52.254;7.988;2023-03-01T01:25:10;-4.30;75.90
47532;DHT22;33273;52.254;7.988;2023-03-01T01:27:36;-4.40;75.90
47532;DHT22;33273;52.254;7.988;2023-03-01T01:30:04;-4.40;76.00
47532;DHT22;33273;52.254;7.988;2023-03-01T01:32:30;-4.40;76.20
47532;DHT22;33273;52.254;7.988;2023-03-01T01:34:55;-4.40;76.20
47532;DHT22;33273;52.254;7.988;2023-03-01T01:37:22;-4.40;76.20
47532;DHT22;33273;52.254;7.988;2023-03-01T01:39:48;-4.50;76.90
47532;DHT22;33273;52.254;7.988;2023-03-01T01:42:15;-4.50;76.00
47532;DHT22;33273;52.254;7.988;2023-03-01T01:44:46;-4.50;75.80
47532;DHT22;33273;52.254;7.988;2023-03-01T01:47:16;-4.50;75.70
47532;DHT22;33273;52.254;7.988;2023-03-01T01:49:45;-4.50;75.50
47532;DHT22;33273;52.254;7.988;2023-03-01T01:52:34;-4.60;75.40
47532;DHT22;33273;52.254;7.988;2023-03-01T01:54:58;-4.60;75.40
47532;DHT22;33273;52.254;7.988;2023-03-01T01:57:32;-4.60;75.50
47532;DHT22;33273;52.254;7.988;2023-03-01T02:00:00;-4.70;75.50
47532;DHT22;33273;52.254;7.988;2023-03-01T02:02:38;-4.70;75.60
47532;DHT22;33273;52.254;7.988;2023-03-01T02:05:11;-4.70;75.40
47532;DHT22;33273;52.254;7.988;2023-03-01T02:07:38;-4.70;76.00
47532;DHT22;33273;52.254;7.988;2023-03-01T02:10:04;-4.80;75.20
47532;DHT22;33273;52.254;7.988;2023-03-01T02:12:30;-4.80;75.50
47532;DHT22;33273;52.254;7.988;2023-03-01T02:14:56;-4.80;75.70
47532;DHT22;33273;52.254;7.988;2023-03-01T02:17:22;-4.80;76.00
47532;DHT22;33273;52.254;7.988;2023-03-01T02:22:28;-4.90;75.80
47532;DHT22;33273;52.254;7.988;2023-03-01T02:27:23;-4.80;75.60
47532;DHT22;33273;52.254;7.988;2023-03-01T02:29:51;-4.90;75.60
47532;DHT22;33273;52.254;7.988;2023-03-01T02:32:18;-4.90;75.80
47532;DHT22;33273;52.254;7.988;2023-03-01T02:34:54;-4.90;75.80
47532;DHT22;33273;52.254;7.988;2023-03-01T02:37:20;-5.00;75.70
47532;DHT22;33273;52.254;7.988;2023-03-01T02:39:55;-5.00;75.80
47532;DHT22;33273;52.254;7.988;2023-03-01T02:42:24;-5.00;75.80
47532;DHT22;33273;52.254;7.988;2023-03-01T02:44:51;-5.00;75.40
47532;DHT22;33273;52.254;7.988;2023-03-01T02:47:17;-5.00;75.40
47532;DHT22;33273;52.254;7.988;2023-03-01T02:49:43;-5.00;75.40
47532;DHT22;33273;52.254;7.988;2023-03-01T02:52:30;-5.00;75.50
47532;DHT22;33273;52.254;7.988;2023-03-01T02:55:01;-5.00;75.90
47532;DHT22;33273;52.254;7.988;2023-03-01T02:57:28;-5.10;76.50
47532;DHT22;33273;52.254;7.988;2023-03-01T02:59:55;-5.10;77.00
47532;DHT22;33273;52.254;7.988;2023-03-01T03:02:26;-5.10;77.50
47532;DHT22;33273;52.254;7.988;2023-03-01T03:05:08;-5.20;77.60
47532;DHT22;33273;52.254;7.988;2023-03-01T03:07:35;-5.20;78.50
47532;DHT22;33273;52.254;7.988;2023-03-01T03:10:03;-5.20;77.90
47532;DHT22;33273;52.254;7.988;2023-03-01T03:12:29;-5.20;77.90
47532;DHT22;33273;52.254;7.988;2023-03-01T03:14:55;-5.20;77.90
47532;DHT22;33273;52.254;7.988;2023-03-01T03:17:20;-5.20;78.00
47532;DHT22;33273;52.254;7.988;2023-03-01T03:19:46;-5.20;78.10
47532;DHT22;33273;52.254;7.988;2023-03-01T03:22:12;-5.20;78.10
47532;DHT22;33273;52.254;7.988;2023-03-01T03:24:40;-5.20;77.90
47532;DHT22;33273;52.254;7.988;2023-03-01T03:27:06;-5.30;77.90
47532;DHT22;33273;52.254;7.988;2023-03-01T03:29:32;-5.30;78.00
47532;DHT22;33273;52.254;7.988;2023-03-01T03:31:59;-5.40;78.00
47532;DHT22;33273;52.254;7.988;2023-03-01T03:34:25;-5.40;77.80
47532;DHT22;33273;52.254;7.988;2023-03-01T03:36:55;-5.40;77.70
47532;DHT22;33273;52.254;7.988;2023-03-01T03:39:27;-5.40;77.50
47532;DHT22;33273;52.254;7.988;2023-03-01T03:41:54;-5.30;77.30
47532;DHT22;33273;52.254;7.988;2023-03-01T03:44:20;-5.30;77.00
47532;DHT22;33273;52.254;7.988;2023-03-01T03:46:46;-5.40;76.50
47532;DHT22;33273;52.254;7.988;2023-03-01T03:49:11;-5.40;76.10
47532;DHT22;33273;52.254;7.988;2023-03-01T03:51:37;-5.40;75.80
47532;DHT22;33273;52.254;7.988;2023-03-01T03:54:03;-5.40;75.50
47532;DHT22;33273;52.254;7.988;2023-03-01T03:56:28;-5.40;75.30
47532;DHT22;33273;52.254;7.988;2023-03-01T03:58:54;-5.40;75.30
47532;DHT22;33273;52.254;7.988;2023-03-01T04:01:20;-5.50;75.40
47532;DHT22;33273;52.254;7.988;2023-03-01T04:03:45;-5.50;75.70
47532;DHT22;33273;52.254;7.988;2023-03-01T04:06:19;-5.50;75.90
47532;DHT22;33273;52.254;7.988;2023-03-01T04:08:45;-5.60;76.20
47532;DHT22;33273;52.254;7.988;2023-03-01T04:11:11;-5.50;76.70
47532;DHT22;33273;52.254;7.988;2023-03-01T04:13:54;-5.60;76.60
47532;DHT22;33273;52.254;7.988;2023-03-01T04:16:20;-5.60;76.80
47532;DHT22;33273;52.254;7.988;2023-03-01T04:18:46;-5.60;76.70
47532;DHT22;33273;52.254;7.988;2023-03-01T04:21:12;-5.60;76.80
47532;DHT22;33273;52.254;7.988;2023-03-01T04:23:38;-5.60;76.90
47532;DHT22;33273;52.254;7.988;2023-03-01T04:26:06;-5.70;77.10
47532;DHT22;33273;52.254;7.988;2023-03-01T04:28:34;-5.60;77.20
47532;DHT22;33273;52.254;7.988;2023-03-01T04:31:02;-5.70;77.20
47532;DHT22;33273;52.254;7.988;2023-03-01T04:33:45;-5.70;77.10
47532;DHT22;33273;52.254;7.988;2023-03-01T04:36:12;-5.70;77.00
47532;DHT22;33273;52.254;7.988;2023-03-01T04:38:38;-5.70;76.90
47532;DHT22;33273;52.254;7.988;2023-03-01T04:41:05;-5.70;76.50
47532;DHT22;33273;52.254;7.988;2023-03-01T04:43:30;-5.70;76.20
47532;DHT22;33273;52.254;7.988;2023-03-01T04:46:04;-5.70;76.10
47532;DHT22;33273;52.254;7.988;2023-03-01T04:48:31;-5.70;76.00
47532;DHT22;33273;52.254;7.988;2023-03-01T04:50:58;-5.70;75.90
47532;DHT22;33273;52.254;7.988;2023-03-01T04:53:24;-5.70;75.80
47532;DHT22;33273;52.254;7.988;2023-03-01T04:55:50;-5.70;75.80
47532;DHT22;33273;52.254;7.988;2023-03-01T04:58:16;-5.80;75.60
47532;DHT22;33273;52.254;7.988;2023-03-01T05:00:42;-5.80;75.90
47532;DHT22;33273;52.254;7.988;2023-03-01T05:03:08;-5.80;76.10
47532;DHT22;33273;52.254;7.988;2023-03-01T05:05:37;-5.80;76.00
47532;DHT22;33273;52.254;7.988;2023-03-01T05:08:04;-5.80;76.20
47532;DHT22;33273;52.254;7.988;2023-03-01T05:10:31;-5.90;76.40
47532;DHT22;33273;52.254;7.988;2023-03-01T05:12:58;-5.90;76.80
47532;DHT22;33273;52.254;7.988;2023-03-01T05:15:25;-5.90;77.30
47532;DHT22;33273;52.254;7.988;2023-03-01T05:17:51;-5.90;77.60
47532;DHT22;33273;52.254;7.988;2023-03-01T05:20:17;-5.90;77.60
47532;DHT22;33273;52.254;7.988;2023-03-01T05:22:43;-5.90;77.70
47532;DHT22;33273;52.254;7.988;2023-03-01T05:25:09;-5.90;77.60
47532;DHT22;33273;52.254;7.988;2023-03-01T05:27:35;-5.90;77.40
47532;DHT22;33273;52.254;7.988;2023-03-01T05:30:01;-5.90;77.20
47532;DHT22;33273;52.254;7.988;2023-03-01T05:32:39;-5.90;78.10
47532;DHT22;33273;52.254;7.988;2023-03-01T05:35:05;-5.90;78.30
47532;DHT22;33273;52.254;7.988;2023-03-01T05:37:32;-5.90;78.50
47532;DHT22;33273;52.254;7.988;2023-03-01T05:39:59;-5.90;78.50
47532;DHT22;33273;52.254;7.988;2023-03-01T05:42:24;-6.00;78.40
47532;DHT22;33273;52.254;7.988;2023-03-01T05:44:50;-6.00;78.40
47532;DHT22;33273;52.254;7.988;2023-03-01T05:47:17;-6.00;78.40
47532;DHT22;33273;52.254;7.988;2023-03-01T05:49:43;-6.00;78.50
47532;DHT22;33273;52.254;7.988;2023-03-01T05:52:08;-6.10;78.50
47532;DHT22;33273;52.254;7.988;2023-03-01T05:54:34;-6.10;78.50
47532;DHT22;33273;52.254;7.988;2023-03-01T05:57:00;-6.00;79.70
47532;DHT22;33273;52.254;7.988;2023-03-01T05:59:26;-6.00;79.70
47532;DHT22;33273;52.254;7.988;2023-03-01T06:01:52;-6.00;79.60
47532;DHT22;33273;52.254;7.988;2023-03-01T06:04:18;-6.00;79.50
47532;DHT22;33273;52.254;7.988;2023-03-01T06:06:45;-6.00;79.40
47532;DHT22;33273;52.254;7.988;2023-03-01T06:09:11;-6.00;79.20
47532;DHT22;33273;52.254;7.988;2023-03-01T06:11:36;-6.00;79.70
47532;DHT22;33273;52.254;7.988;2023-03-01T06:14:03;-6.00;78.70
47532;DHT22;33273;52.254;7.988;2023-03-01T06:16:29;-6.00;78.50
47532;DHT22;33273;52.254;7.988;2023-03-01T06:18:55;-6.00;78.10
47532;DHT22;33273;52.254;7.988;2023-03-01T06:21:21;-6.10;77.90
47532;DHT22;33273;52.254;7.988;2023-03-01T06:23:46;-6.10;77.70
47532;DHT22;33273;52.254;7.988;2023-03-01T06:26:12;-6.00;77.50
47532;DHT22;33273;52.254;7.988;2023-03-01T06:28:38;-6.10;77.50
47532;DHT22;33273;52.254;7.988;2023-03-01T06:31:05;-6.10;77.80
47532;DHT22;33273;52.254;7.988;2023-03-01T06:33:34;-6.10;78.00
47532;DHT22;33273;52.254;7.988;2023-03-01T06:36:01;-6.10;78.20
47532;DHT22;33273;52.254;7.988;2023-03-01T06:38:27;-6.00;78.50
47532;DHT22;33273;52.254;7.988;2023-03-01T06:40:53;-6.00;78.90
47532;DHT22;33273;52.254;7.988;2023-03-01T06:43:19;-6.00;79.20
47532;DHT22;33273;52.254;7.988;2023-03-01T06:45:45;-5.90;80.20
47532;DHT22;33273;52.254;7.988;2023-03-01T06:48:11;-5.60;82.10
47532;DHT22;33273;52.254;7.988;2023-03-01T06:50:37;-5.50;84.10
47532;DHT22;33273;52.254;7.988;2023-03-01T06:53:03;-5.20;86.40
47532;DHT22;33273;52.254;7.988;2023-03-01T06:55:30;-4.90;88.90
47532;DHT22;33273;52.254;7.988;2023-03-01T06:57:56;-4.60;90.60
47532;DHT22;33273;52.254;7.988;2023-03-01T07:00:22;-4.60;91.00
47532;DHT22;33273;52.254;7.988;2023-03-01T07:02:48;-4.50;91.70
47532;DHT22;33273;52.254;7.988;2023-03-01T07:05:14;-4.30;92.40
47532;DHT22;33273;52.254;7.988;2023-03-01T07:07:39;-4.20;92.60
47532;DHT22;33273;52.254;7.988;2023-03-01T07:10:06;-4.10;92.70
47532;DHT22;33273;52.254;7.988;2023-03-01T07:12:32;-4.00;92.40
47532;DHT22;33273;52.254;7.988;2023-03-01T07:14:59;-3.90;92.10
47532;DHT22;33273;52.254;7.988;2023-03-01T07:17:24;-3.80;91.80
47532;DHT22;33273;52.254;7.988;2023-03-01T07:19:50;-3.80;91.20
47532;DHT22;33273;52.254;7.988;2023-03-01T07:22:16;-3.60;91.20
47532;DHT22;33273;52.254;7.988;2023-03-01T07:24:42;-3.60;90.50
47532;DHT22;33273;52.254;7.988;2023-03-01T07:27:08;-3.40;90.00
47532;DHT22;33273;52.254;7.988;2023-03-01T07:29:34;-3.30;90.10
47532;DHT22;33273;52.254;7.988;2023-03-01T07:32:02;-3.20;89.30
47532;DHT22;33273;52.254;7.988;2023-03-01T07:34:28;-3.20;88.30
47532;DHT22;33273;52.254;7.988;2023-03-01T07:36:53;-3.10;87.80
47532;DHT22;33273;52.254;7.988;2023-03-01T07:39:20;-3.00;87.20
47532;DHT22;33273;52.254;7.988;2023-03-01T07:41:51;-2.90;86.30
47532;DHT22;33273;52.254;7.988;2023-03-01T07:44:20;-2.80;85.20
47532;DHT22;33273;52.254;7.988;2023-03-01T07:46:46;-2.80;84.40
47532;DHT22;33273;52.254;7.988;2023-03-01T07:49:12;-2.80;83.50
47532;DHT22;33273;52.254;7.988;2023-03-01T07:51:38;-2.60;83.30
47532;DHT22;33273;52.254;7.988;2023-03-01T07:54:04;-2.60;82.90
47532;DHT22;33273;52.254;7.988;2023-03-01T07:56:33;-2.50;82.40
47532;DHT22;33273;52.254;7.988;2023-03-01T07:58:59;-2.40;81.90
47532;DHT22;33273;52.254;7.988;2023-03-01T08:01:25;-2.40;81.70
47532;DHT22;33273;52.254;7.988;2023-03-01T08:03:50;-2.30;81.70
47532;DHT22;33273;52.254;7.988;2023-03-01T08:06:16;-2.30;81.60
47532;DHT22;33273;52.254;7.988;2023-03-01T08:08:45;-2.10;81.70
47532;DHT22;33273;52.254;7.988;2023-03-01T08:11:12;-2.00;81.80
47532;DHT22;33273;52.254;7.988;2023-03-01T08:13:39;-1.90;81.40
47532;DHT22;33273;52.254;7.988;2023-03-01T08:16:06;-1.80;81.00
47532;DHT22;33273;52.254;7.988;2023-03-01T08:18:33;-1.70;80.90
47532;DHT22;33273;52.254;7.988;2023-03-01T08:21:03;-1.50;80.90
47532;DHT22;33273;52.254;7.988;2023-03-01T08:23:29;-1.40;80.50
47532;DHT22;33273;52.254;7.988;2023-03-01T08:26:02;-1.30;80.10
47532;DHT22;33273;52.254;7.988;2023-03-01T08:28:28;-1.20;79.70
47532;DHT22;33273;52.254;7.988;2023-03-01T08:30:55;-1.10;78.80
47532;DHT22;33273;52.254;7.988;2023-03-01T08:33:21;-1.00;77.90
47532;DHT22;33273;52.254;7.988;2023-03-01T08:35:47;-0.90;77.50
47532;DHT22;33273;52.254;7.988;2023-03-01T08:38:13;-0.80;75.70
47532;DHT22;33273;52.254;7.988;2023-03-01T08:40:40;-0.60;72.00
47532;DHT22;33273;52.254;7.988;2023-03-01T08:43:05;-0.50;70.30
47532;DHT22;33273;52.254;7.988;2023-03-01T08:45:31;-0.40;67.60
47532;DHT22;33273;52.254;7.988;2023-03-01T08:47:57;-0.20;65.10
47532;DHT22;33273;52.254;7.988;2023-03-01T08:50:24;-0.10;64.40
47532;DHT22;33273;52.254;7.988;2023-03-01T08:52:50;0.00;63.20
47532;DHT22;33273;52.254;7.988;2023-03-01T08:55:17;0.10;63.30
47532;DHT22;33273;52.254;7.988;2023-03-01T08:57:43;0.20;64.10
47532;DHT22;33273;52.254;7.988;2023-03-01T09:00:09;0.30;61.00
47532;DHT22;33273;52.254;7.988;2023-03-01T09:02:36;0.40;59.00
47532;DHT22;33273;52.254;7.988;2023-03-01T09:05:03;0.50;57.30
47532;DHT22;33273;52.254;7.988;2023-03-01T09:07:28;0.60;57.10
47532;DHT22;33273;52.254;7.988;2023-03-01T09:09:54;0.70;56.10
47532;DHT22;33273;52.254;7.988;2023-03-01T09:12:20;0.80;56.00
47532;DHT22;33273;52.254;7.988;2023-03-01T09:14:46;0.90;56.20
47532;DHT22;33273;52.254;7.988;2023-03-01T09:17:12;1.00;54.50
47532;DHT22;33273;52.254;7.988;2023-03-01T09:19:37;1.10;54.20
47532;DHT22;33273;52.254;7.988;2023-03-01T09:22:04;1.20;55.60
47532;DHT22;33273;52.254;7.988;2023-03-01T09:24:30;1.30;53.50
47532;DHT22;33273;52.254;7.988;2023-03-01T09:26:56;1.50;53.60
47532;DHT22;33273;52.254;7.988;2023-03-01T09:29:22;1.60;50.10
47532;DHT22;33273;52.254;7.988;2023-03-01T09:31:49;1.80;50.40
47532;DHT22;33273;52.254;7.988;2023-03-01T09:34:14;1.80;49.00
47532;DHT22;33273;52.254;7.988;2023-03-01T09:36:44;2.00;48.20
47532;DHT22;33273;52.254;7.988;2023-03-01T09:39:10;2.00;47.30
47532;DHT22;33273;52.254;7.988;2023-03-01T09:41:38;2.10;47.20
47532;DHT22;33273;52.254;7.988;2023-03-01T09:46:38;2.40;45.40
47532;DHT22;33273;52.254;7.988;2023-03-01T09:49:09;2.40;44.50
47532;DHT22;33273;52.254;7.988;2023-03-01T09:51:38;2.50;45.10
47532;DHT22;33273;52.254;7.988;2023-03-01T09:54:04;2.60;44.50
47532;DHT22;33273;52.254;7.988;2023-03-01T10:01:29;2.90;41.70
47532;DHT22;33273;52.254;7.988;2023-03-01T10:06:26;3.10;40.40
47532;DHT22;33273;52.254;7.988;2023-03-01T10:11:21;3.20;39.60
47532;DHT22;33273;52.254;7.988;2023-03-01T10:16:26;3.30;38.20
47532;DHT22;33273;52.254;7.988;2023-03-01T10:18:56;3.40;38.50
47532;DHT22;33273;52.254;7.988;2023-03-01T10:21:23;3.50;37.70
47532;DHT22;33273;52.254;7.988;2023-03-01T10:23:51;3.50;37.60
47532;DHT22;33273;52.254;7.988;2023-03-01T10:29:04;3.60;37.00
47532;DHT22;33273;52.254;7.988;2023-03-01T10:31:41;3.70;35.70
47532;DHT22;33273;52.254;7.988;2023-03-01T10:34:10;3.80;35.90
47532;DHT22;33273;52.254;7.988;2023-03-01T10:36:37;3.90;35.90
47532;DHT22;33273;52.254;7.988;2023-03-01T10:39:11;3.90;35.40
47532;DHT22;33273;52.254;7.988;2023-03-01T10:41:37;3.90;35.10
47532;DHT22;33273;52.254;7.988;2023-03-01T10:44:11;3.90;34.60
47532;DHT22;33273;52.254;7.988;2023-03-01T10:47:00;3.90;35.40
47532;DHT22;33273;52.254;7.988;2023-03-01T10:49:26;4.00;34.10
47532;DHT22;33273;52.254;7.988;2023-03-01T10:51:53;4.00;34.10
47532;DHT22;33273;52.254;7.988;2023-03-01T10:54:29;4.00;33.50
47532;DHT22;33273;52.254;7.988;2023-03-01T10:57:04;4.00;33.60
47532;DHT22;33273;52.254;7.988;2023-03-01T10:59:31;4.00;33.60
47532;DHT22;33273;52.254;7.988;2023-03-01T11:07:27;4.10;34.00
47532;DHT22;33273;52.254;7.988;2023-03-01T11:09:53;4.20;32.50
47532;DHT22;33273;52.254;7.988;2023-03-01T11:12:19;4.20;33.30
47532;DHT22;33273;52.254;7.988;2023-03-01T11:14:48;4.30;33.10
47532;DHT22;33273;52.254;7.988;2023-03-01T11:17:28;4.30;32.40
47532;DHT22;33273;52.254;7.988;2023-03-01T11:20:01;4.30;33.00
47532;DHT22;33273;52.254;7.988;2023-03-01T11:22:27;4.40;33.70
47532;DHT22;33273;52.254;7.988;2023-03-01T11:24:53;4.30;32.90
47532;DHT22;33273;52.254;7.988;2023-03-01T11:27:24;4.30;33.40
47532;DHT22;33273;52.254;7.988;2023-03-01T11:30:04;4.40;33.50
47532;DHT22;33273;52.254;7.988;2023-03-01T11:32:34;4.40;33.40
47532;DHT22;33273;52.254;7.988;2023-03-01T11:35:20;4.50;32.90
47532;DHT22;33273;52.254;7.988;2023-03-01T12:04:32;4.40;31.10
47532;DHT22;33273;52.254;7.988;2023-03-01T12:18:00;4.80;32.90
47532;DHT22;33273;52.254;7.988;2023-03-01T12:28:34;5.10;30.00
47532;DHT22;33273;52.254;7.988;2023-03-01T12:31:30;5.10;30.50
47532;DHT22;33273;52.254;7.988;2023-03-01T12:41:46;5.10;30.60
47532;DHT22;33273;52.254;7.988;2023-03-01T12:49:27;5.10;30.00
47532;DHT22;33273;52.254;7.988;2023-03-01T12:51:56;5.20;29.30
47532;DHT22;33273;52.254;7.988;2023-03-01T12:54:28;5.20;29.10
47532;DHT22;33273;52.254;7.988;2023-03-01T12:56:55;5.10;29.50
47532;DHT22;33273;52.254;7.988;2023-03-01T13:04:29;5.30;28.50
47532;DHT22;33273;52.254;7.988;2023-03-01T13:07:05;5.30;29.20
47532;DHT22;33273;52.254;7.988;2023-03-01T13:15:13;5.40;28.30
47532;DHT22;33273;52.254;7.988;2023-03-01T13:17:50;5.40;28.10
47532;DHT22;33273;52.254;7.988;2023-03-01T13:20:17;5.50;28.90
47532;DHT22;33273;52.254;7.988;2023-03-01T13:22:47;5.50;28.10
47532;DHT22;33273;52.254;7.988;2023-03-01T13:25:14;5.50;28.40
47532;DHT22;33273;52.254;7.988;2023-03-01T13:27:41;5.50;28.40
47532;DHT22;33273;52.254;7.988;2023-03-01T13:35:59;5.60;28.60
47532;DHT22;33273;52.254;7.988;2023-03-01T13:41:16;5.70;27.60
47532;DHT22;33273;52.254;7.988;2023-03-01T13:43:43;5.80;28.00
47532;DHT22;33273;52.254;7.988;2023-03-01T13:46:23;5.80;28.20
47532;DHT22;33273;52.254;7.988;2023-03-01T13:48:53;5.70;27.60
47532;DHT22;33273;52.254;7.988;2023-03-01T13:51:25;5.70;28.50
47532;DHT22;33273;52.254;7.988;2023-03-01T13:53:51;5.70;28.10
47532;DHT22;33273;52.254;7.988;2023-03-01T13:56:24;5.70;28.30
47532;DHT22;33273;52.254;7.988;2023-03-01T13:59:12;5.80;28.70
47532;DHT22;33273;52.254;7.988;2023-03-01T14:01:38;5.80;27.90
47532;DHT22;33273;52.254;7.988;2023-03-01T14:04:18;5.90;28.50
47532;DHT22;33273;52.254;7.988;2023-03-01T14:06:45;5.90;27.90
47532;DHT22;33273;52.254;7.988;2023-03-01T14:09:18;5.90;27.90
47532;DHT22;33273;52.254;7.988;2023-03-01T14:16:56;5.90;27.10
47532;DHT22;33273;52.254;7.988;2023-03-01T14:19:25;5.80;27.00
47532;DHT22;33273;52.254;7.988;2023-03-01T14:22:27;5.90;27.40
47532;DHT22;33273;52.254;7.988;2023-03-01T14:24:49;5.90;27.00
47532;DHT22;33273;52.254;7.988;2023-03-01T14:27:15;6.00;27.00
47532;DHT22;33273;52.254;7.988;2023-03-01T14:29:43;5.90;27.10
47532;DHT22;33273;52.254;7.988;2023-03-01T14:34:46;5.90;27.90
47532;DHT22;33273;52.254;7.988;2023-03-01T14:39:47;5.90;27.80
47532;DHT22;33273;52.254;7.988;2023-03-01T14:42:15;5.90;28.30
47532;DHT22;33273;52.254;7.988;2023-03-01T14:44:45;5.90;28.80
47532;DHT22;33273;52.254;7.988;2023-03-01T14:47:13;5.90;29.30
47532;DHT22;33273;52.254;7.988;2023-03-01T14:49:41;6.00;29.00
47532;DHT22;33273;52.254;7.988;2023-03-01T14:52:51;6.00;28.40
47532;DHT22;33273;52.254;7.988;2023-03-01T14:54:59;6.00;28.30
47532;DHT22;33273;52.254;7.988;2023-03-01T14:57:25;6.00;29.00
47532;DHT22;33273;52.254;7.988;2023-03-01T14:59:52;6.00;29.10
47532;DHT22;33273;52.254;7.988;2023-03-01T15:02:24;5.90;28.70
47532;DHT22;33273;52.254;7.988;2023-03-01T15:04:57;5.90;29.40
47532;DHT22;33273;52.254;7.988;2023-03-01T15:07:31;5.90;29.80
47532;DHT22;33273;52.254;7.988;2023-03-01T15:09:59;5.90;29.70
47532;DHT22;33273;52.254;7.988;2023-03-01T15:12:33;5.90;29.20
47532;DHT22;33273;52.254;7.988;2023-03-01T15:14:59;5.80;29.40
47532;DHT22;33273;52.254;7.988;2023-03-01T15:17:32;5.80;29.70
47532;DHT22;33273;52.254;7.988;2023-03-01T15:20:00;5.80;29.60
47532;DHT22;33273;52.254;7.988;2023-03-01T15:22:26;5.90;29.80
47532;DHT22;33273;52.254;7.988;2023-03-01T15:24:52;5.90;29.80
47532;DHT22;33273;52.254;7.988;2023-03-01T15:27:20;5.90;30.00
47532;DHT22;33273;52.254;7.988;2023-03-01T15:29:51;5.90;29.50
47532;DHT22;33273;52.254;7.988;2023-03-01T15:32:28;5.90;29.10
47532;DHT22;33273;52.254;7.988;2023-03-01T15:34:56;5.90;28.90
47532;DHT22;33273;52.254;7.988;2023-03-01T15:37:38;5.90;29.20
47532;DHT22;33273;52.254;7.988;2023-03-01T15:43:03;5.90;28.90
47532;DHT22;33273;52.254;7.988;2023-03-01T15:45:30;5.90;27.90
47532;DHT22;33273;52.254;7.988;2023-03-01T15:47:56;5.90;27.20
47532;DHT22;33273;52.254;7.988;2023-03-01T15:50:25;5.90;27.40
47532;DHT22;33273;52.254;7.988;2023-03-01T15:52:51;5.90;28.50
47532;DHT22;33273;52.254;7.988;2023-03-01T15:55:20;5.90;28.00
47532;DHT22;33273;52.254;7.988;2023-03-01T15:57:46;5.90;27.50
47532;DHT22;33273;52.254;7.988;2023-03-01T16:00:12;5.80;26.80
47532;DHT22;33273;52.254;7.988;2023-03-01T16:02:39;5.80;27.70
47532;DHT22;33273;52.254;7.988;2023-03-01T16:05:05;5.70;27.90
47532;DHT22;33273;52.254;7.988;2023-03-01T16:07:31;5.70;27.70
47532;DHT22;33273;52.254;7.988;2023-03-01T16:09:57;5.60;28.00
47532;DHT22;33273;52.254;7.988;2023-03-01T16:12:22;5.60;27.80
47532;DHT22;33273;52.254;7.988;2023-03-01T16:14:49;5.60;27.70
47532;DHT22;33273;52.254;7.988;2023-03-01T16:17:15;5.60;27.70
47532;DHT22;33273;52.254;7.988;2023-03-01T16:19:41;5.50;27.70
47532;DHT22;33273;52.254;7.988;2023-03-01T16:22:10;5.50;27.60
47532;DHT22;33273;52.254;7.988;2023-03-01T16:24:36;5.50;27.60
47532;DHT22;33273;52.254;7.988;2023-03-01T16:27:02;5.50;27.70
47532;DHT22;33273;52.254;7.988;2023-03-01T16:29:28;5.50;28.10
47532;DHT22;33273;52.254;7.988;2023-03-01T16:31:55;5.40;28.30
47532;DHT22;33273;52.254;7.988;2023-03-01T16:34:20;5.40;28.40
47532;DHT22;33273;52.254;7.988;2023-03-01T16:36:47;5.30;29.60
47532;DHT22;33273;52.254;7.988;2023-03-01T16:39:13;5.30;28.90
47532;DHT22;33273;52.254;7.988;2023-03-01T16:41:39;5.20;28.80
47532;DHT22;33273;52.254;7.988;2023-03-01T16:44:05;5.20;29.10
47532;DHT22;33273;52.254;7.988;2023-03-01T16:46:30;5.10;29.30
47532;DHT22;33273;52.254;7.988;2023-03-01T16:48:56;5.10;29.50
47532;DHT22;33273;52.254;7.988;2023-03-01T16:51:22;5.10;29.60
47532;DHT22;33273;52.254;7.988;2023-03-01T16:53:49;5.10;29.70
47532;DHT22;33273;52.254;7.988;2023-03-01T16:56:15;5.10;29.80
47532;DHT22;33273;52.254;7.988;2023-03-01T16:58:41;5.00;29.80
47532;DHT22;33273;52.254;7.988;2023-03-01T17:01:08;5.00;30.00
47532;DHT22;33273;52.254;7.988;2023-03-01T17:03:34;4.90;30.20
47532;DHT22;33273;52.254;7.988;2023-03-01T17:06:01;4.80;30.30
47532;DHT22;33273;52.254;7.988;2023-03-01T17:08:27;4.80;30.60
47532;DHT22;33273;52.254;7.988;2023-03-01T17:10:53;4.80;30.60
47532;DHT22;33273;52.254;7.988;2023-03-01T17:13:19;4.70;30.70
47532;DHT22;33273;52.254;7.988;2023-03-01T17:15:45;4.70;31.00
47532;DHT22;33273;52.254;7.988;2023-03-01T17:18:10;4.60;31.00
47532;DHT22;33273;52.254;7.988;2023-03-01T17:20:36;4.60;30.90
47532;DHT22;33273;52.254;7.988;2023-03-01T17:23:02;4.60;31.30
47532;DHT22;33273;52.254;7.988;2023-03-01T17:25:28;4.50;32.10
47532;DHT22;33273;52.254;7.988;2023-03-01T17:27:54;4.50;31.40
47532;DHT22;33273;52.254;7.988;2023-03-01T17:30:20;4.40;31.50
47532;DHT22;33273;52.254;7.988;2023-03-01T17:32:45;4.40;31.60
47532;DHT22;33273;52.254;7.988;2023-03-01T17:35:11;4.30;31.90
47532;DHT22;33273;52.254;7.988;2023-03-01T17:37:38;4.30;32.10
47532;DHT22;33273;52.254;7.988;2023-03-01T17:40:04;4.20;32.30
47532;DHT22;33273;52.254;7.988;2023-03-01T17:42:31;4.20;32.50